createdAt,value
2022-10-07T00:03:18.466Z,98656.38
2022-10-07T00:08:22.164Z,98650.41
2022-10-07T00:13:25.174Z,98671.16
2022-10-07T00:18:27.939Z,98515.53
2022-10-07T00:23:30.851Z,98550.41
2022-10-07T00:28:35.090Z,98671.16
2022-10-07T00:33:40.179Z,98676.69
2022-10-07T00:38:43.234Z,98667.28
2022-10-07T00:43:46.423Z,98643.31
2022-10-07T00:48:50.037Z,98601.09
2022-10-07T00:53:56.054Z,98503.38
2022-10-07T00:59:02.131Z,98610.03
2022-10-07T01:04:05.349Z,98454.75
2022-10-07T01:09:09.624Z,98657.81
2022-10-07T01:14:53.211Z,98646.75
2022-10-07T01:20:15.573Z,98625.94
2022-10-07T01:25:47.873Z,98627.75
2022-10-07T01:30:56.534Z,98567.97
2022-10-07T01:36:10.918Z,98601.50
2022-10-07T01:41:18.437Z,98611.09
2022-10-07T01:46:24.871Z,98575.44
2022-10-07T01:51:32.604Z,98606.00
2022-10-07T01:56:54.890Z,98613.78
2022-10-07T02:02:25.496Z,98593.38
2022-10-07T02:07:53.126Z,98598.06
2022-10-07T02:13:10.250Z,98589.13
2022-10-07T02:18:22.354Z,98454.25
2022-10-07T02:23:26.529Z,98340.47
2022-10-07T02:28:33.077Z,98580.41
2022-10-07T02:33:38.301Z,98382.03
2022-10-07T02:38:41.525Z,98580.59
2022-10-07T02:43:54.030Z,98454.47
2022-10-07T02:49:01.434Z,98570.63
2022-10-07T02:54:06.001Z,98540.91
2022-10-07T02:59:12.549Z,98457.13
2022-10-07T03:04:15.540Z,98528.22
2022-10-07T03:09:18.593Z,98470.53
2022-10-07T03:14:21.568Z,98483.38
2022-10-07T03:19:24.803Z,98538.63
2022-10-07T03:24:27.862Z,98479.47
2022-10-07T03:29:33.706Z,98514.63
2022-10-07T03:34:36.361Z,98524.41
2022-10-07T03:39:39.075Z,98380.19
2022-10-07T03:44:42.041Z,98437.72
2022-10-07T03:49:48.696Z,98554.22
2022-10-07T03:54:52.101Z,98560.38
2022-10-07T03:59:55.958Z,98483.38
2022-10-07T04:05:08.973Z,98561.81
2022-10-07T04:10:13.079Z,98541.31
2022-10-07T04:15:16.175Z,98425.03
2022-10-07T04:20:19.099Z,98463.91
2022-10-07T04:25:34.628Z,98495.94
2022-10-07T04:30:41.387Z,98557.59
2022-10-07T04:35:45.909Z,98440.28
2022-10-07T04:40:50.993Z,98544.19
2022-10-07T04:45:56.320Z,98505.13
2022-10-07T04:51:08.838Z,98378.03
2022-10-07T04:56:12.089Z,98476.78
2022-10-07T05:01:14.854Z,98438.34
2022-10-07T05:06:17.782Z,98438.44
2022-10-07T05:11:20.539Z,98326.25
2022-10-07T05:16:24.705Z,98474.38
2022-10-07T05:21:27.880Z,98478.59
2022-10-07T05:26:30.787Z,98550.28
2022-10-07T05:31:33.676Z,98274.09
2022-10-07T05:36:43.739Z,98510.50
2022-10-07T05:41:46.524Z,98480.59
2022-10-07T05:46:50.170Z,98543.41
2022-10-07T05:51:52.892Z,98540.44
2022-10-07T05:56:55.615Z,98520.22
2022-10-07T06:02:01.768Z,98501.22
2022-10-07T06:07:06.293Z,98475.38
2022-10-07T06:12:29.896Z,98513.63
2022-10-07T06:17:32.643Z,98509.69
2022-10-07T06:22:35.313Z,98528.88
2022-10-07T06:27:38.038Z,98514.84
2022-10-07T06:32:40.744Z,98531.69
2022-10-07T06:37:43.738Z,98546.66
2022-10-07T06:42:47.126Z,98444.63
2022-10-07T06:47:50.104Z,98480.81
2022-10-07T06:52:52.812Z,98312.41
2022-10-07T06:58:10.590Z,98488.72
2022-10-07T07:03:20.897Z,98488.25
2022-10-07T07:08:29.908Z,98564.22
2022-10-07T07:13:35.941Z,98426.50
2022-10-07T07:18:38.621Z,98531.16
2022-10-07T07:23:41.352Z,98517.72
2022-10-07T07:28:44.258Z,98415.81
2022-10-07T07:33:53.434Z,98556.34
2022-10-07T07:38:59.090Z,98551.63
2022-10-07T07:44:05.649Z,98550.34
2022-10-07T07:49:08.622Z,98551.44
2022-10-07T07:54:12.682Z,98531.84
2022-10-07T07:59:15.666Z,98486.22
2022-10-07T08:04:18.993Z,98399.88
2022-10-07T08:09:31.888Z,98425.50
2022-10-07T08:14:34.717Z,98554.66
2022-10-07T08:19:37.404Z,98386.88
2022-10-07T08:24:40.233Z,98386.44
2022-10-07T08:29:43.092Z,98433.38
2022-10-07T08:34:45.758Z,98492.59
2022-10-07T08:39:48.858Z,98501.56
2022-10-07T08:44:52.198Z,98464.16
2022-10-07T08:50:14.023Z,98516.03
2022-10-07T08:55:28.873Z,98504.59
2022-10-07T09:00:41.725Z,98467.50
2022-10-07T09:05:49.842Z,98454.94
2022-10-07T09:10:54.283Z,98503.75
2022-10-07T09:16:06.965Z,98500.09
2022-10-07T09:21:18.034Z,98495.59
2022-10-07T09:26:21.084Z,98359.25
2022-10-07T09:31:25.768Z,98369.44
2022-10-07T09:36:28.605Z,98303.31
2022-10-07T09:41:37.080Z,98352.75
2022-10-07T09:46:42.167Z,98474.09
2022-10-07T09:52:00.004Z,98367.31
2022-10-07T09:57:05.079Z,98476.06
2022-10-07T10:02:16.711Z,98363.78
2022-10-07T10:12:45.755Z,98451.75
2022-10-07T10:17:49.742Z,98465.41
2022-10-07T10:22:53.604Z,98394.84
2022-10-07T10:27:59.748Z,98456.47
2022-10-07T10:33:18.599Z,98449.19
2022-10-07T10:38:47.994Z,98452.31
2022-10-07T10:43:51.444Z,98438.97
2022-10-07T10:49:28.976Z,98394.22
2022-10-07T10:55:12.337Z,98421.09
2022-10-07T11:00:20.156Z,98393.47
2022-10-07T11:05:33.065Z,98394.50
2022-10-07T11:11:07.651Z,98328.00
2022-10-07T11:16:18.504Z,98384.78
2022-10-07T11:21:31.150Z,98282.22
2022-10-07T11:26:52.364Z,98371.41
2022-10-07T11:32:14.748Z,98359.69
2022-10-07T11:37:45.692Z,98350.84
2022-10-07T11:42:52.610Z,98350.25
2022-10-07T11:48:06.741Z,98327.00
2022-10-07T11:53:16.447Z,98333.25
2022-10-07T11:58:27.985Z,98324.97
2022-10-07T12:03:31.591Z,98313.38
2022-10-07T12:08:38.351Z,98063.34
2022-10-07T12:13:53.234Z,98288.72
2022-10-07T12:19:17.951Z,98291.31
2022-10-07T12:24:24.591Z,98261.00
2022-10-07T12:29:32.853Z,98286.91
2022-10-07T12:34:41.985Z,98209.84
2022-10-07T12:39:46.675Z,98121.31
2022-10-07T12:44:53.684Z,98278.97
2022-10-07T12:50:03.371Z,98183.31
2022-10-07T12:55:12.325Z,98195.84
2022-10-07T13:00:25.251Z,98254.31
2022-10-07T13:06:04.231Z,98247.94
2022-10-07T13:11:47.984Z,98241.16
2022-10-07T13:17:16.209Z,98195.94
2022-10-07T13:22:21.023Z,98185.00
2022-10-07T13:27:28.690Z,98155.53
2022-10-07T13:32:42.564Z,98023.19
2022-10-07T13:37:47.962Z,98216.34
2022-10-07T13:43:00.802Z,98146.94
2022-10-07T13:48:04.371Z,98135.34
2022-10-07T13:53:20.714Z,98198.59
2022-10-07T13:58:24.636Z,98193.81
2022-10-07T14:03:28.389Z,98179.25
2022-10-07T14:08:32.417Z,98180.09
2022-10-07T14:13:38.637Z,98183.59
2022-10-07T14:18:45.067Z,98139.13
2022-10-07T14:23:59.219Z,98172.88
2022-10-07T14:29:22.816Z,98161.56
2022-10-07T14:34:47.808Z,98151.50
2022-10-07T14:39:54.547Z,98137.41
2022-10-07T14:44:59.136Z,98104.91
2022-10-07T14:50:02.842Z,98077.50
2022-10-07T14:55:14.592Z,98154.06
2022-10-07T15:00:22.883Z,98145.63
2022-10-07T15:05:27.828Z,98098.06
2022-10-07T15:10:33.427Z,98121.88
2022-10-07T15:15:43.941Z,98109.91
2022-10-07T15:20:56.056Z,98127.00
2022-10-07T15:25:59.488Z,98079.03
2022-10-07T15:31:09.038Z,98104.88
2022-10-07T15:36:14.185Z,98074.41
2022-10-07T15:41:41.480Z,98124.88
2022-10-07T15:46:46.738Z,98126.16
2022-10-07T15:51:50.833Z,98096.69
2022-10-07T15:56:55.030Z,98109.53
2022-10-07T16:01:58.921Z,97955.00
2022-10-07T16:07:03.445Z,98137.91
2022-10-07T16:12:08.793Z,98138.19
2022-10-07T16:17:12.610Z,98136.72
2022-10-07T16:22:17.565Z,98143.09
2022-10-07T16:27:21.138Z,98072.41
2022-10-07T16:32:25.102Z,98050.63
2022-10-07T16:37:31.628Z,98131.00
2022-10-07T16:42:35.714Z,98100.16
2022-10-07T16:47:39.650Z,98162.47
2022-10-07T16:52:43.422Z,98149.66
2022-10-07T16:57:48.606Z,98138.00
2022-10-07T17:02:52.268Z,98129.16
2022-10-07T17:07:55.799Z,98069.47
2022-10-07T17:12:59.389Z,98186.78
2022-10-07T17:18:03.871Z,98137.78
2022-10-07T17:23:08.658Z,98190.41
2022-10-07T17:28:19.379Z,98184.59
2022-10-07T17:33:22.415Z,98180.63
2022-10-07T17:38:25.848Z,98150.00
2022-10-07T17:43:28.667Z,98170.75
2022-10-07T17:48:31.466Z,98228.78
2022-10-07T17:53:44.576Z,98158.78
2022-10-07T17:58:49.202Z,98215.03
2022-10-07T18:03:58.329Z,98199.28
2022-10-07T18:09:08.198Z,98220.34
2022-10-07T18:14:30.333Z,98188.09
2022-10-07T18:19:43.388Z,98209.78
2022-10-07T18:24:47.143Z,98224.28
2022-10-07T18:29:50.564Z,98211.72
2022-10-07T18:34:53.589Z,98177.47
2022-10-07T18:39:56.458Z,98197.47
2022-10-07T18:44:59.327Z,98166.75
2022-10-07T18:50:02.106Z,98226.59
2022-10-07T18:55:05.994Z,98182.81
2022-10-07T19:00:09.410Z,98206.13
2022-10-07T19:05:14.475Z,98176.72
2022-10-07T19:10:17.421Z,98210.31
2022-10-07T19:15:20.310Z,98039.47
2022-10-07T19:20:23.346Z,98099.22
2022-10-07T19:25:48.442Z,98143.03
2022-10-07T19:30:52.878Z,98192.72
2022-10-07T19:36:01.466Z,98145.47
2022-10-07T19:41:08.263Z,98170.94
2022-10-07T19:46:12.098Z,98185.44
2022-10-07T19:51:20.453Z,98206.25
2022-10-07T19:56:28.983Z,98197.19
2022-10-07T20:01:36.741Z,98164.56
2022-10-07T20:06:39.867Z,98167.94
2022-10-07T20:11:44.800Z,98053.19
2022-10-07T20:16:48.091Z,98092.28
2022-10-07T20:21:51.790Z,98181.19
2022-10-07T20:26:56.983Z,98153.25
2022-10-07T20:32:00.328Z,98130.09
2022-10-07T20:37:03.589Z,98132.72
2022-10-07T20:42:22.431Z,98170.97
2022-10-07T20:47:28.730Z,98177.91
2022-10-07T20:52:41.620Z,98108.28
2022-10-07T20:57:44.645Z,98144.00
2022-10-07T21:02:47.635Z,98155.50
2022-10-07T21:07:54.525Z,98167.94
2022-10-07T21:12:57.645Z,98091.81
2022-10-07T21:18:00.957Z,98153.03
2022-10-07T21:23:04.031Z,98122.63
2022-10-07T21:28:07.053Z,97984.56
2022-10-07T21:33:13.824Z,98154.66
2022-10-07T21:38:17.857Z,98092.66
2022-10-07T21:43:22.313Z,98137.72
2022-10-07T21:48:25.575Z,98086.97
2022-10-07T21:53:28.819Z,97994.22
2022-10-07T21:58:37.274Z,98143.78
2022-10-07T22:03:40.391Z,98118.38
2022-10-07T22:08:45.783Z,98142.97
2022-10-07T22:13:54.054Z,98103.44
2022-10-07T22:18:57.063Z,98064.00
2022-10-07T22:24:02.281Z,98123.38
2022-10-07T22:29:05.659Z,98104.38
2022-10-07T22:34:08.657Z,97918.22
2022-10-07T22:39:11.345Z,98119.88
2022-10-07T22:44:14.398Z,98107.38
2022-10-07T22:49:17.264Z,97880.78
2022-10-07T22:54:20.290Z,97962.19
2022-10-07T22:59:22.989Z,98112.22
2022-10-07T23:04:26.071Z,98000.03
2022-10-07T23:09:28.959Z,98080.09
2022-10-07T23:14:33.072Z,98102.38
2022-10-07T23:19:35.945Z,98016.28
2022-10-07T23:24:38.731Z,98013.22
2022-10-07T23:29:41.487Z,98078.53
2022-10-07T23:34:44.374Z,98108.91
2022-10-07T23:39:47.314Z,97916.50
2022-10-07T23:44:50.336Z,98079.16
2022-10-07T23:49:53.229Z,98086.72
2022-10-07T23:54:56.001Z,97838.22
2022-10-07T23:59:58.935Z,98085.16
